sensor_id;sensor_type;location;lat;lon;timestamp;P1;durP1;ratioP1;P2;durP2;ratioP2
18304;SDS011;9278;52.156;21.048;2022-11-20T00:01:34;65.27;;;24.73;;
18304;SDS011;9278;52.156;21.048;2022-11-20T00:04:02;68.60;;;24.50;;
18304;SDS011;9278;52.156;21.048;2022-11-20T00:06:32;63.00;;;24.50;;
18304;SDS011;9278;52.156;21.048;2022-11-20T00:09:00;62.43;;;23.77;;
18304;SDS011;9278;52.156;21.048;2022-11-20T00:11:29;65.90;;;24.50;;
18304;SDS011;9278;52.156;21.048;2022-11-20T00:13:58;69.73;;;24.77;;
18304;SDS011;9278;52.156;21.048;2022-11-20T00:16:28;75.73;;;25.57;;
18304;SDS011;9278;52.156;21.048;2022-11-20T00:18:59;64.30;;;24.23;;
18304;SDS011;9278;52.156;21.048;2022-11-20T00:21:27;64.60;;;25.20;;
18304;SDS011;9278;52.156;21.048;2022-11-20T00:23:57;70.20;;;24.33;;
18304;SDS011;9278;52.156;21.048;2022-11-20T00:26:26;64.00;;;23.07;;
18304;SDS011;9278;52.156;21.048;2022-11-20T00:28:56;64.93;;;23.77;;
18304;SDS011;9278;52.156;21.048;2022-11-20T00:31:25;61.50;;;23.97;;
18304;SDS011;9278;52.156;21.048;2022-11-20T00:33:53;67.67;;;24.40;;
18304;SDS011;9278;52.156;21.048;2022-11-20T00:36:22;62.40;;;23.37;;
18304;SDS011;9278;52.156;21.048;2022-11-20T00:38:52;67.13;;;24.27;;
18304;SDS011;9278;52.156;21.048;2022-11-20T00:41:22;66.23;;;24.40;;
18304;SDS011;9278;52.156;21.048;2022-11-20T00:43:51;66.63;;;23.97;;
18304;SDS011;9278;52.156;21.048;2022-11-20T00:46:20;60.70;;;23.87;;
18304;SDS011;9278;52.156;21.048;2022-11-20T00:48:51;61.33;;;24.17;;
18304;SDS011;9278;52.156;21.048;2022-11-20T00:51:20;68.33;;;24.37;;
18304;SDS011;9278;52.156;21.048;2022-11-20T00:53:50;63.83;;;23.43;;
18304;SDS011;9278;52.156;21.048;2022-11-20T00:56:18;63.23;;;23.57;;
18304;SDS011;9278;52.156;21.048;2022-11-20T00:58:48;63.33;;;23.77;;
18304;SDS011;9278;52.156;21.048;2022-11-20T01:01:17;71.50;;;24.77;;
18304;SDS011;9278;52.156;21.048;2022-11-20T01:03:47;64.03;;;24.27;;
18304;SDS011;9278;52.156;21.048;2022-11-20T01:06:17;59.63;;;23.77;;
18304;SDS011;9278;52.156;21.048;2022-11-20T01:08:47;61.83;;;24.23;;
18304;SDS011;9278;52.156;21.048;2022-11-20T01:11:17;68.37;;;24.17;;
18304;SDS011;9278;52.156;21.048;2022-11-20T01:13:46;64.47;;;24.67;;
18304;SDS011;9278;52.156;21.048;2022-11-20T01:16:18;60.60;;;22.50;;
18304;SDS011;9278;52.156;21.048;2022-11-20T01:18:47;62.67;;;23.70;;
18304;SDS011;9278;52.156;21.048;2022-11-20T01:21:17;65.87;;;24.03;;
18304;SDS011;9278;52.156;21.048;2022-11-20T01:23:47;63.10;;;24.30;;
18304;SDS011;9278;52.156;21.048;2022-11-20T01:26:17;67.93;;;22.67;;
18304;SDS011;9278;52.156;21.048;2022-11-20T01:28:46;59.40;;;23.50;;
18304;SDS011;9278;52.156;21.048;2022-11-20T01:31:17;65.30;;;23.80;;
18304;SDS011;9278;52.156;21.048;2022-11-20T01:33:47;64.83;;;23.77;;
18304;SDS011;9278;52.156;21.048;2022-11-20T01:36:17;67.50;;;24.13;;
18304;SDS011;9278;52.156;21.048;2022-11-20T01:38:46;63.40;;;23.80;;
18304;SDS011;9278;52.156;21.048;2022-11-20T01:41:15;68.80;;;24.43;;
18304;SDS011;9278;52.156;21.048;2022-11-20T01:43:57;66.33;;;23.40;;
18304;SDS011;9278;52.156;21.048;2022-11-20T01:46:26;69.73;;;24.67;;
18304;SDS011;9278;52.156;21.048;2022-11-20T01:48:56;68.63;;;24.67;;
18304;SDS011;9278;52.156;21.048;2022-11-20T01:51:28;72.10;;;25.50;;
18304;SDS011;9278;52.156;21.048;2022-11-20T01:54:01;62.50;;;24.13;;
18304;SDS011;9278;52.156;21.048;2022-11-20T01:56:34;72.27;;;26.43;;
18304;SDS011;9278;52.156;21.048;2022-11-20T01:59:07;70.17;;;25.50;;
18304;SDS011;9278;52.156;21.048;2022-11-20T02:01:38;67.60;;;25.60;;
18304;SDS011;9278;52.156;21.048;2022-11-20T02:04:06;64.27;;;24.60;;
18304;SDS011;9278;52.156;21.048;2022-11-20T02:06:38;66.90;;;25.07;;
18304;SDS011;9278;52.156;21.048;2022-11-20T02:09:10;72.77;;;26.53;;
18304;SDS011;9278;52.156;21.048;2022-11-20T02:11:38;65.97;;;23.53;;
18304;SDS011;9278;52.156;21.048;2022-11-20T02:14:06;67.20;;;25.57;;
18304;SDS011;9278;52.156;21.048;2022-11-20T02:16:35;74.97;;;26.13;;
18304;SDS011;9278;52.156;21.048;2022-11-20T02:19:09;72.57;;;25.80;;
18304;SDS011;9278;52.156;21.048;2022-11-20T02:21:54;68.00;;;25.13;;
18304;SDS011;9278;52.156;21.048;2022-11-20T02:24:28;73.37;;;24.97;;
18304;SDS011;9278;52.156;21.048;2022-11-20T02:26:57;63.63;;;25.10;;
18304;SDS011;9278;52.156;21.048;2022-11-20T02:29:34;63.67;;;25.27;;
18304;SDS011;9278;52.156;21.048;2022-11-20T02:32:19;64.57;;;24.60;;
18304;SDS011;9278;52.156;21.048;2022-11-20T02:34:47;69.67;;;25.37;;
18304;SDS011;9278;52.156;21.048;2022-11-20T02:37:15;72.60;;;25.77;;
18304;SDS011;9278;52.156;21.048;2022-11-20T02:39:46;68.13;;;26.27;;
18304;SDS011;9278;52.156;21.048;2022-11-20T02:42:16;70.23;;;25.50;;
18304;SDS011;9278;52.156;21.048;2022-11-20T02:44:44;68.27;;;25.23;;
18304;SDS011;9278;52.156;21.048;2022-11-20T02:47:12;73.20;;;27.03;;
18304;SDS011;9278;52.156;21.048;2022-11-20T02:49:40;66.63;;;26.60;;
18304;SDS011;9278;52.156;21.048;2022-11-20T02:52:08;69.63;;;25.03;;
18304;SDS011;9278;52.156;21.048;2022-11-20T02:54:36;66.93;;;24.67;;
18304;SDS011;9278;52.156;21.048;2022-11-20T02:57:06;68.93;;;25.73;;
18304;SDS011;9278;52.156;21.048;2022-11-20T02:59:34;70.53;;;24.77;;
18304;SDS011;9278;52.156;21.048;2022-11-20T03:02:02;62.60;;;24.77;;
18304;SDS011;9278;52.156;21.048;2022-11-20T03:07:24;67.27;;;24.97;;
18304;SDS011;9278;52.156;21.048;2022-11-20T03:09:58;68.20;;;25.83;;
18304;SDS011;9278;52.156;21.048;2022-11-20T03:12:27;75.20;;;27.20;;
18304;SDS011;9278;52.156;21.048;2022-11-20T03:14:55;68.53;;;26.30;;
18304;SDS011;9278;52.156;21.048;2022-11-20T03:17:24;69.23;;;25.27;;
18304;SDS011;9278;52.156;21.048;2022-11-20T03:19:52;72.20;;;26.20;;
18304;SDS011;9278;52.156;21.048;2022-11-20T03:22:20;70.20;;;25.20;;
18304;SDS011;9278;52.156;21.048;2022-11-20T03:24:48;70.17;;;26.37;;
18304;SDS011;9278;52.156;21.048;2022-11-20T03:27:18;71.03;;;25.57;;
18304;SDS011;9278;52.156;21.048;2022-11-20T03:29:48;69.03;;;25.13;;
18304;SDS011;9278;52.156;21.048;2022-11-20T03:32:16;67.50;;;26.33;;
18304;SDS011;9278;52.156;21.048;2022-11-20T03:34:44;69.10;;;25.77;;
18304;SDS011;9278;52.156;21.048;2022-11-20T03:37:12;69.37;;;26.27;;
18304;SDS011;9278;52.156;21.048;2022-11-20T03:39:40;68.90;;;27.37;;
18304;SDS011;9278;52.156;21.048;2022-11-20T03:42:08;67.83;;;25.97;;
18304;SDS011;9278;52.156;21.048;2022-11-20T03:44:58;71.13;;;25.53;;
18304;SDS011;9278;52.156;21.048;2022-11-20T03:47:26;75.77;;;27.03;;
18304;SDS011;9278;52.156;21.048;2022-11-20T03:49:54;69.63;;;27.00;;
18304;SDS011;9278;52.156;21.048;2022-11-20T03:52:22;75.80;;;26.17;;
18304;SDS011;9278;52.156;21.048;2022-11-20T03:54:50;75.87;;;26.13;;
18304;SDS011;9278;52.156;21.048;2022-11-20T03:57:18;62.43;;;24.17;;
18304;SDS011;9278;52.156;21.048;2022-11-20T03:59:46;71.03;;;25.50;;
18304;SDS011;9278;52.156;21.048;2022-11-20T04:02:16;76.43;;;27.17;;
18304;SDS011;9278;52.156;21.048;2022-11-20T04:04:44;67.57;;;26.27;;
18304;SDS011;9278;52.156;21.048;2022-11-20T04:07:12;80.27;;;26.77;;
18304;SDS011;9278;52.156;21.048;2022-11-20T04:09:40;66.77;;;27.20;;
18304;SDS011;9278;52.156;21.048;2022-11-20T04:12:08;76.37;;;27.77;;
18304;SDS011;9278;52.156;21.048;2022-11-20T04:14:36;74.10;;;27.00;;
18304;SDS011;9278;52.156;21.048;2022-11-20T04:17:04;78.73;;;27.30;;
18304;SDS011;9278;52.156;21.048;2022-11-20T04:19:34;72.00;;;26.20;;
18304;SDS011;9278;52.156;21.048;2022-11-20T04:22:02;63.40;;;24.03;;
18304;SDS011;9278;52.156;21.048;2022-11-20T04:24:30;70.70;;;26.27;;
18304;SDS011;9278;52.156;21.048;2022-11-20T04:26:58;66.70;;;25.73;;
18304;SDS011;9278;52.156;21.048;2022-11-20T04:29:26;69.07;;;26.07;;
18304;SDS011;9278;52.156;21.048;2022-11-20T04:31:54;76.10;;;25.77;;
18304;SDS011;9278;52.156;21.048;2022-11-20T04:34:22;61.87;;;25.63;;
18304;SDS011;9278;52.156;21.048;2022-11-20T04:36:51;73.30;;;26.17;;
18304;SDS011;9278;52.156;21.048;2022-11-20T04:39:20;70.10;;;24.40;;
18304;SDS011;9278;52.156;21.048;2022-11-20T04:41:48;70.20;;;24.63;;
18304;SDS011;9278;52.156;21.048;2022-11-20T04:44:36;65.77;;;25.43;;
18304;SDS011;9278;52.156;21.048;2022-11-20T04:47:04;69.67;;;25.13;;
18304;SDS011;9278;52.156;21.048;2022-11-20T04:49:32;70.07;;;24.30;;
18304;SDS011;9278;52.156;21.048;2022-11-20T04:52:02;61.43;;;24.63;;
18304;SDS011;9278;52.156;21.048;2022-11-20T04:54:30;61.40;;;24.40;;
18304;SDS011;9278;52.156;21.048;2022-11-20T04:56:58;63.97;;;23.77;;
18304;SDS011;9278;52.156;21.048;2022-11-20T04:59:26;66.73;;;24.57;;
18304;SDS011;9278;52.156;21.048;2022-11-20T05:01:55;66.77;;;22.80;;
18304;SDS011;9278;52.156;21.048;2022-11-20T05:04:23;68.20;;;23.60;;
18304;SDS011;9278;52.156;21.048;2022-11-20T05:06:51;64.03;;;24.03;;
18304;SDS011;9278;52.156;21.048;2022-11-20T05:09:20;64.50;;;23.70;;
18304;SDS011;9278;52.156;21.048;2022-11-20T05:11:49;73.37;;;23.83;;
18304;SDS011;9278;52.156;21.048;2022-11-20T05:14:17;65.77;;;24.53;;
18304;SDS011;9278;52.156;21.048;2022-11-20T05:16:45;70.47;;;24.97;;
18304;SDS011;9278;52.156;21.048;2022-11-20T05:19:13;69.73;;;24.57;;
18304;SDS011;9278;52.156;21.048;2022-11-20T05:21:42;66.77;;;23.90;;
18304;SDS011;9278;52.156;21.048;2022-11-20T05:24:10;72.73;;;25.13;;
18304;SDS011;9278;52.156;21.048;2022-11-20T05:26:39;58.27;;;22.33;;
18304;SDS011;9278;52.156;21.048;2022-11-20T05:29:09;71.47;;;24.93;;
18304;SDS011;9278;52.156;21.048;2022-11-20T05:31:38;71.50;;;25.03;;
18304;SDS011;9278;52.156;21.048;2022-11-20T05:34:07;62.30;;;23.77;;
18304;SDS011;9278;52.156;21.048;2022-11-20T05:36:35;69.67;;;24.97;;
18304;SDS011;9278;52.156;21.048;2022-11-20T05:39:03;68.30;;;25.07;;
18304;SDS011;9278;52.156;21.048;2022-11-20T05:41:32;61.03;;;23.67;;
18304;SDS011;9278;52.156;21.048;2022-11-20T05:44:02;62.90;;;23.50;;
18304;SDS011;9278;52.156;21.048;2022-11-20T05:46:30;64.93;;;23.80;;
18304;SDS011;9278;52.156;21.048;2022-11-20T05:48:58;63.27;;;23.83;;
18304;SDS011;9278;52.156;21.048;2022-11-20T05:51:26;64.73;;;24.63;;
18304;SDS011;9278;52.156;21.048;2022-11-20T05:53:55;69.87;;;24.80;;
18304;SDS011;9278;52.156;21.048;2022-11-20T05:56:24;70.13;;;24.93;;
18304;SDS011;9278;52.156;21.048;2022-11-20T05:58:52;66.10;;;24.17;;
18304;SDS011;9278;52.156;21.048;2022-11-20T06:01:23;66.13;;;25.17;;
18304;SDS011;9278;52.156;21.048;2022-11-20T06:03:52;66.57;;;25.10;;
18304;SDS011;9278;52.156;21.048;2022-11-20T06:06:21;68.37;;;23.40;;
18304;SDS011;9278;52.156;21.048;2022-11-20T06:08:50;64.50;;;24.43;;
18304;SDS011;9278;52.156;21.048;2022-11-20T06:11:18;68.13;;;24.57;;
18304;SDS011;9278;52.156;21.048;2022-11-20T06:13:46;67.93;;;25.57;;
18304;SDS011;9278;52.156;21.048;2022-11-20T06:16:15;68.17;;;24.93;;
18304;SDS011;9278;52.156;21.048;2022-11-20T06:18:46;72.60;;;25.73;;
18304;SDS011;9278;52.156;21.048;2022-11-20T06:21:15;64.33;;;24.30;;
18304;SDS011;9278;52.156;21.048;2022-11-20T06:23:45;66.97;;;25.07;;
18304;SDS011;9278;52.156;21.048;2022-11-20T06:26:14;62.03;;;24.10;;
18304;SDS011;9278;52.156;21.048;2022-11-20T06:28:43;71.33;;;24.27;;
18304;SDS011;9278;52.156;21.048;2022-11-20T06:31:12;69.57;;;24.67;;
18304;SDS011;9278;52.156;21.048;2022-11-20T06:33:41;71.50;;;25.00;;
18304;SDS011;9278;52.156;21.048;2022-11-20T06:36:12;74.47;;;26.87;;
18304;SDS011;9278;52.156;21.048;2022-11-20T06:38:41;69.37;;;25.60;;
18304;SDS011;9278;52.156;21.048;2022-11-20T06:41:11;74.47;;;26.40;;
18304;SDS011;9278;52.156;21.048;2022-11-20T06:43:41;65.63;;;25.77;;
18304;SDS011;9278;52.156;21.048;2022-11-20T06:46:09;68.60;;;25.73;;
18304;SDS011;9278;52.156;21.048;2022-11-20T06:48:39;72.70;;;26.67;;
18304;SDS011;9278;52.156;21.048;2022-11-20T06:51:07;73.57;;;25.77;;
18304;SDS011;9278;52.156;21.048;2022-11-20T06:53:37;68.70;;;25.73;;
18304;SDS011;9278;52.156;21.048;2022-11-20T06:56:06;71.60;;;26.07;;
18304;SDS011;9278;52.156;21.048;2022-11-20T06:58:34;71.43;;;26.97;;
18304;SDS011;9278;52.156;21.048;2022-11-20T07:01:04;70.90;;;26.73;;
18304;SDS011;9278;52.156;21.048;2022-11-20T07:03:34;71.57;;;26.40;;
18304;SDS011;9278;52.156;21.048;2022-11-20T07:06:02;70.67;;;26.27;;
18304;SDS011;9278;52.156;21.048;2022-11-20T07:08:31;68.47;;;26.10;;
18304;SDS011;9278;52.156;21.048;2022-11-20T07:11:02;68.00;;;25.80;;
18304;SDS011;9278;52.156;21.048;2022-11-20T07:13:32;69.77;;;26.80;;
18304;SDS011;9278;52.156;21.048;2022-11-20T07:16:00;71.30;;;27.07;;
18304;SDS011;9278;52.156;21.048;2022-11-20T07:18:29;74.67;;;25.73;;
18304;SDS011;9278;52.156;21.048;2022-11-20T07:21:00;63.83;;;25.13;;
18304;SDS011;9278;52.156;21.048;2022-11-20T07:23:28;70.37;;;26.20;;
18304;SDS011;9278;52.156;21.048;2022-11-20T07:25:56;66.70;;;25.80;;
18304;SDS011;9278;52.156;21.048;2022-11-20T07:28:26;66.67;;;25.77;;
18304;SDS011;9278;52.156;21.048;2022-11-20T07:30:54;64.30;;;24.90;;
18304;SDS011;9278;52.156;21.048;2022-11-20T07:33:22;70.73;;;25.07;;
18304;SDS011;9278;52.156;21.048;2022-11-20T07:35:53;75.27;;;26.83;;
18304;SDS011;9278;52.156;21.048;2022-11-20T07:38:21;74.07;;;26.57;;
18304;SDS011;9278;52.156;21.048;2022-11-20T07:40:53;73.50;;;25.87;;
18304;SDS011;9278;52.156;21.048;2022-11-20T07:43:24;69.90;;;25.97;;
18304;SDS011;9278;52.156;21.048;2022-11-20T07:45:54;69.93;;;25.47;;
18304;SDS011;9278;52.156;21.048;2022-11-20T07:48:22;70.10;;;24.97;;
18304;SDS011;9278;52.156;21.048;2022-11-20T07:50:53;68.33;;;25.07;;
18304;SDS011;9278;52.156;21.048;2022-11-20T07:53:22;69.03;;;25.67;;
18304;SDS011;9278;52.156;21.048;2022-11-20T07:55:50;71.13;;;26.70;;
18304;SDS011;9278;52.156;21.048;2022-11-20T07:58:19;64.67;;;25.60;;
18304;SDS011;9278;52.156;21.048;2022-11-20T08:00:49;68.20;;;25.87;;
18304;SDS011;9278;52.156;21.048;2022-11-20T08:03:17;63.60;;;24.97;;
18304;SDS011;9278;52.156;21.048;2022-11-20T08:05:50;69.93;;;26.87;;
18304;SDS011;9278;52.156;21.048;2022-11-20T08:08:18;72.43;;;27.63;;
18304;SDS011;9278;52.156;21.048;2022-11-20T08:10:47;67.63;;;26.23;;
18304;SDS011;9278;52.156;21.048;2022-11-20T08:13:15;68.40;;;25.67;;
18304;SDS011;9278;52.156;21.048;2022-11-20T08:16:03;71.57;;;27.60;;
18304;SDS011;9278;52.156;21.048;2022-11-20T08:18:31;74.60;;;27.23;;
18304;SDS011;9278;52.156;21.048;2022-11-20T08:21:01;75.13;;;28.23;;
18304;SDS011;9278;52.156;21.048;2022-11-20T08:23:33;78.67;;;28.83;;
18304;SDS011;9278;52.156;21.048;2022-11-20T08:26:04;71.53;;;28.97;;
18304;SDS011;9278;52.156;21.048;2022-11-20T08:28:32;76.40;;;28.63;;
18304;SDS011;9278;52.156;21.048;2022-11-20T08:31:01;68.83;;;27.83;;
18304;SDS011;9278;52.156;21.048;2022-11-20T08:33:31;68.40;;;28.03;;
18304;SDS011;9278;52.156;21.048;2022-11-20T08:35:59;78.73;;;29.13;;
18304;SDS011;9278;52.156;21.048;2022-11-20T08:38:28;74.60;;;29.17;;
18304;SDS011;9278;52.156;21.048;2022-11-20T08:40:56;70.80;;;29.73;;
18304;SDS011;9278;52.156;21.048;2022-11-20T08:43:42;70.43;;;29.17;;
18304;SDS011;9278;52.156;21.048;2022-11-20T08:46:12;73.00;;;29.00;;
18304;SDS011;9278;52.156;21.048;2022-11-20T08:48:40;74.93;;;29.00;;
18304;SDS011;9278;52.156;21.048;2022-11-20T08:51:09;74.17;;;29.17;;
18304;SDS011;9278;52.156;21.048;2022-11-20T08:53:37;71.97;;;29.87;;
18304;SDS011;9278;52.156;21.048;2022-11-20T08:56:06;72.37;;;28.87;;
18304;SDS011;9278;52.156;21.048;2022-11-20T08:58:39;72.70;;;29.13;;
18304;SDS011;9278;52.156;21.048;2022-11-20T09:01:29;75.63;;;29.30;;
18304;SDS011;9278;52.156;21.048;2022-11-20T09:03:57;72.63;;;28.97;;
18304;SDS011;9278;52.156;21.048;2022-11-20T09:06:29;77.13;;;29.93;;
18304;SDS011;9278;52.156;21.048;2022-11-20T09:08:58;78.87;;;29.30;;
18304;SDS011;9278;52.156;21.048;2022-11-20T09:11:32;73.27;;;27.87;;
18304;SDS011;9278;52.156;21.048;2022-11-20T09:14:06;75.07;;;29.30;;
18304;SDS011;9278;52.156;21.048;2022-11-20T09:16:39;71.93;;;29.10;;
18304;SDS011;9278;52.156;21.048;2022-11-20T09:19:07;74.67;;;28.63;;
18304;SDS011;9278;52.156;21.048;2022-11-20T09:21:57;71.70;;;28.80;;
18304;SDS011;9278;52.156;21.048;2022-11-20T09:24:27;72.70;;;28.17;;
18304;SDS011;9278;52.156;21.048;2022-11-20T09:26:56;75.60;;;29.23;;
18304;SDS011;9278;52.156;21.048;2022-11-20T09:29:24;76.47;;;28.53;;
18304;SDS011;9278;52.156;21.048;2022-11-20T09:31:53;70.93;;;27.63;;
18304;SDS011;9278;52.156;21.048;2022-11-20T09:34:21;72.60;;;27.43;;
18304;SDS011;9278;52.156;21.048;2022-11-20T09:36:49;76.87;;;29.47;;
18304;SDS011;9278;52.156;21.048;2022-11-20T09:39:17;70.87;;;28.00;;
18304;SDS011;9278;52.156;21.048;2022-11-20T09:41:54;71.30;;;28.00;;
18304;SDS011;9278;52.156;21.048;2022-11-20T09:44:49;69.30;;;27.33;;
18304;SDS011;9278;52.156;21.048;2022-11-20T09:47:36;68.23;;;26.00;;
18304;SDS011;9278;52.156;21.048;2022-11-20T09:50:19;64.37;;;26.10;;
18304;SDS011;9278;52.156;21.048;2022-11-20T09:52:55;68.13;;;27.57;;
18304;SDS011;9278;52.156;21.048;2022-11-20T09:55:36;65.33;;;27.33;;
18304;SDS011;9278;52.156;21.048;2022-11-20T09:58:05;66.57;;;27.73;;
18304;SDS011;9278;52.156;21.048;2022-11-20T10:00:34;71.37;;;27.80;;
18304;SDS011;9278;52.156;21.048;2022-11-20T10:03:06;70.57;;;28.57;;
18304;SDS011;9278;52.156;21.048;2022-11-20T10:05:42;69.67;;;28.80;;
18304;SDS011;9278;52.156;21.048;2022-11-20T10:08:15;68.60;;;28.93;;
18304;SDS011;9278;52.156;21.048;2022-11-20T10:10:47;73.53;;;28.10;;
18304;SDS011;9278;52.156;21.048;2022-11-20T10:13:23;74.57;;;29.40;;
18304;SDS011;9278;52.156;21.048;2022-11-20T10:16:03;76.20;;;29.37;;
18304;SDS011;9278;52.156;21.048;2022-11-20T10:18:47;75.97;;;29.57;;
18304;SDS011;9278;52.156;21.048;2022-11-20T10:21:26;77.97;;;29.63;;
18304;SDS011;9278;52.156;21.048;2022-11-20T10:26:58;71.67;;;27.87;;
18304;SDS011;9278;52.156;21.048;2022-11-20T10:29:35;67.93;;;27.77;;
18304;SDS011;9278;52.156;21.048;2022-11-20T10:32:07;68.47;;;27.47;;
18304;SDS011;9278;52.156;21.048;2022-11-20T10:34:43;71.53;;;28.30;;
18304;SDS011;9278;52.156;21.048;2022-11-20T10:37:18;66.80;;;26.90;;
18304;SDS011;9278;52.156;21.048;2022-11-20T10:39:53;71.27;;;26.97;;
18304;SDS011;9278;52.156;21.048;2022-11-20T10:42:26;68.83;;;28.43;;
18304;SDS011;9278;52.156;21.048;2022-11-20T10:45:01;66.67;;;27.10;;
18304;SDS011;9278;52.156;21.048;2022-11-20T10:47:37;65.13;;;27.33;;
18304;SDS011;9278;52.156;21.048;2022-11-20T10:50:09;62.97;;;25.10;;
18304;SDS011;9278;52.156;21.048;2022-11-20T10:52:49;68.27;;;27.17;;
18304;SDS011;9278;52.156;21.048;2022-11-20T10:55:27;64.23;;;27.23;;
18304;SDS011;9278;52.156;21.048;2022-11-20T10:58:01;64.37;;;26.43;;
18304;SDS011;9278;52.156;21.048;2022-11-20T11:00:35;68.53;;;26.97;;
18304;SDS011;9278;52.156;21.048;2022-11-20T11:03:07;65.37;;;27.73;;
18304;SDS011;9278;52.156;21.048;2022-11-20T11:05:50;66.80;;;27.13;;
18304;SDS011;9278;52.156;21.048;2022-11-20T11:08:22;62.27;;;27.27;;
18304;SDS011;9278;52.156;21.048;2022-11-20T11:11:02;64.73;;;26.47;;
18304;SDS011;9278;52.156;21.048;2022-11-20T11:13:43;65.03;;;25.67;;
18304;SDS011;9278;52.156;21.048;2022-11-20T11:16:16;61.97;;;26.37;;
18304;SDS011;9278;52.156;21.048;2022-11-20T11:18:49;63.37;;;25.83;;
18304;SDS011;9278;52.156;21.048;2022-11-20T11:21:23;63.87;;;26.93;;
18304;SDS011;9278;52.156;21.048;2022-11-20T11:23:59;63.97;;;25.57;;
18304;SDS011;9278;52.156;21.048;2022-11-20T11:26:52;59.60;;;24.50;;
18304;SDS011;9278;52.156;21.048;2022-11-20T11:29:25;61.77;;;25.13;;
18304;SDS011;9278;52.156;21.048;2022-11-20T11:32:03;62.37;;;25.97;;
18304;SDS011;9278;52.156;21.048;2022-11-20T11:34:32;62.90;;;26.03;;
18304;SDS011;9278;52.156;21.048;2022-11-20T11:37:02;63.40;;;26.33;;
18304;SDS011;9278;52.156;21.048;2022-11-20T11:39:31;63.93;;;25.90;;
18304;SDS011;9278;52.156;21.048;2022-11-20T11:42:00;60.77;;;26.67;;
18304;SDS011;9278;52.156;21.048;2022-11-20T11:44:30;62.73;;;25.50;;
18304;SDS011;9278;52.156;21.048;2022-11-20T11:47:33;59.97;;;25.13;;
18304;SDS011;9278;52.156;21.048;2022-11-20T11:50:13;60.00;;;24.57;;
18304;SDS011;9278;52.156;21.048;2022-11-20T11:52:45;57.53;;;25.23;;
18304;SDS011;9278;52.156;21.048;2022-11-20T11:55:19;65.50;;;26.23;;
18304;SDS011;9278;52.156;21.048;2022-11-20T11:57:55;57.33;;;23.93;;
18304;SDS011;9278;52.156;21.048;2022-11-20T12:00:31;59.80;;;25.27;;
18304;SDS011;9278;52.156;21.048;2022-11-20T12:03:04;65.90;;;26.07;;
18304;SDS011;9278;52.156;21.048;2022-11-20T12:05:40;61.53;;;25.20;;
18304;SDS011;9278;52.156;21.048;2022-11-20T12:08:14;59.73;;;25.23;;
18304;SDS011;9278;52.156;21.048;2022-11-20T12:10:48;59.57;;;26.03;;
18304;SDS011;9278;52.156;21.048;2022-11-20T12:13:28;62.20;;;26.13;;
18304;SDS011;9278;52.156;21.048;2022-11-20T12:16:07;56.67;;;24.40;;
18304;SDS011;9278;52.156;21.048;2022-11-20T12:18:40;58.40;;;25.53;;
18304;SDS011;9278;52.156;21.048;2022-11-20T12:21:17;60.83;;;25.67;;
18304;SDS011;9278;52.156;21.048;2022-11-20T12:23:52;56.00;;;24.47;;
18304;SDS011;9278;52.156;21.048;2022-11-20T12:26:38;63.63;;;25.70;;
18304;SDS011;9278;52.156;21.048;2022-11-20T12:29:17;55.43;;;23.40;;
18304;SDS011;9278;52.156;21.048;2022-11-20T12:32:01;57.93;;;23.73;;
18304;SDS011;9278;52.156;21.048;2022-11-20T12:34:47;58.33;;;24.17;;
18304;SDS011;9278;52.156;21.048;2022-11-20T12:37:29;50.83;;;22.47;;
18304;SDS011;9278;52.156;21.048;2022-11-20T12:40:06;56.00;;;21.97;;
18304;SDS011;9278;52.156;21.048;2022-11-20T12:42:49;55.63;;;23.23;;
18304;SDS011;9278;52.156;21.048;2022-11-20T12:48:38;57.50;;;25.00;;
18304;SDS011;9278;52.156;21.048;2022-11-20T12:51:20;68.33;;;26.57;;
18304;SDS011;9278;52.156;21.048;2022-11-20T12:54:06;67.57;;;27.20;;
18304;SDS011;9278;52.156;21.048;2022-11-20T12:56:55;65.90;;;26.03;;
18304;SDS011;9278;52.156;21.048;2022-11-20T12:59:33;58.57;;;23.30;;
18304;SDS011;9278;52.156;21.048;2022-11-20T13:02:18;61.00;;;25.67;;
18304;SDS011;9278;52.156;21.048;2022-11-20T13:05:01;63.07;;;26.10;;
18304;SDS011;9278;52.156;21.048;2022-11-20T13:07:42;64.93;;;26.33;;
18304;SDS011;9278;52.156;21.048;2022-11-20T13:10:14;65.60;;;26.67;;
18304;SDS011;9278;52.156;21.048;2022-11-20T13:12:47;71.10;;;27.33;;
18304;SDS011;9278;52.156;21.048;2022-11-20T13:15:25;63.57;;;26.57;;
18304;SDS011;9278;52.156;21.048;2022-11-20T13:18:08;65.53;;;27.00;;
18304;SDS011;9278;52.156;21.048;2022-11-20T13:20:40;65.63;;;26.33;;
18304;SDS011;9278;52.156;21.048;2022-11-20T13:23:10;66.40;;;26.93;;
18304;SDS011;9278;52.156;21.048;2022-11-20T13:25:39;65.70;;;27.40;;
18304;SDS011;9278;52.156;21.048;2022-11-20T13:30:57;64.63;;;26.00;;
18304;SDS011;9278;52.156;21.048;2022-11-20T13:33:27;62.80;;;26.80;;
18304;SDS011;9278;52.156;21.048;2022-11-20T13:35:59;65.27;;;25.90;;
18304;SDS011;9278;52.156;21.048;2022-11-20T13:38:28;64.30;;;26.27;;
18304;SDS011;9278;52.156;21.048;2022-11-20T13:41:10;69.97;;;25.47;;
18304;SDS011;9278;52.156;21.048;2022-11-20T13:44:04;60.80;;;25.80;;
18304;SDS011;9278;52.156;21.048;2022-11-20T13:46:37;58.57;;;26.07;;
18304;SDS011;9278;52.156;21.048;2022-11-20T13:49:10;62.40;;;25.50;;
18304;SDS011;9278;52.156;21.048;2022-11-20T13:51:46;62.50;;;26.87;;
18304;SDS011;9278;52.156;21.048;2022-11-20T13:54:39;65.33;;;27.10;;
18304;SDS011;9278;52.156;21.048;2022-11-20T13:57:30;62.10;;;25.63;;
18304;SDS011;9278;52.156;21.048;2022-11-20T14:00:18;64.20;;;25.73;;
18304;SDS011;9278;52.156;21.048;2022-11-20T14:02:50;67.80;;;27.13;;
18304;SDS011;9278;52.156;21.048;2022-11-20T14:05:28;62.17;;;26.27;;
18304;SDS011;9278;52.156;21.048;2022-11-20T14:07:59;68.43;;;26.93;;
18304;SDS011;9278;52.156;21.048;2022-11-20T14:10:30;60.67;;;26.53;;
18304;SDS011;9278;52.156;21.048;2022-11-20T14:12:58;64.17;;;26.53;;
18304;SDS011;9278;52.156;21.048;2022-11-20T14:15:39;61.70;;;26.13;;
18304;SDS011;9278;52.156;21.048;2022-11-20T14:18:12;64.30;;;25.63;;
18304;SDS011;9278;52.156;21.048;2022-11-20T14:20:42;68.93;;;26.77;;
18304;SDS011;9278;52.156;21.048;2022-11-20T14:23:10;62.83;;;26.57;;
18304;SDS011;9278;52.156;21.048;2022-11-20T14:25:41;69.97;;;27.33;;
18304;SDS011;9278;52.156;21.048;2022-11-20T14:28:18;68.57;;;27.80;;
18304;SDS011;9278;52.156;21.048;2022-11-20T14:30:53;67.53;;;26.90;;
18304;SDS011;9278;52.156;21.048;2022-11-20T14:33:23;67.07;;;27.70;;
18304;SDS011;9278;52.156;21.048;2022-11-20T14:35:53;61.60;;;27.47;;
18304;SDS011;9278;52.156;21.048;2022-11-20T14:38:24;60.23;;;27.03;;
18304;SDS011;9278;52.156;21.048;2022-11-20T14:40:54;68.10;;;27.03;;
18304;SDS011;9278;52.156;21.048;2022-11-20T14:43:32;69.27;;;26.50;;
18304;SDS011;9278;52.156;21.048;2022-11-20T14:46:03;63.17;;;25.67;;
18304;SDS011;9278;52.156;21.048;2022-11-20T14:48:37;65.47;;;26.60;;
18304;SDS011;9278;52.156;21.048;2022-11-20T14:51:08;59.27;;;25.37;;
18304;SDS011;9278;52.156;21.048;2022-11-20T14:53:37;65.47;;;26.33;;
18304;SDS011;9278;52.156;21.048;2022-11-20T14:56:05;65.37;;;26.60;;
18304;SDS011;9278;52.156;21.048;2022-11-20T14:58:33;61.97;;;26.07;;
18304;SDS011;9278;52.156;21.048;2022-11-20T15:01:02;60.27;;;24.73;;